Time;durP1;ratioP1;P1;durP2;ratioP2;P2;SDS_P1;SDS_P2;PMS_P1;PMS_P2;Temp;Humidity;BMP_temperature;BMP_pressure;BME280_temperature;BME280_humidity;BME280_pressure;Samples;Min_cycle;Max_cycle;Signal;HPM_P1;HPM_P2
2022/07/24 00:01:52;;;;;;;2.83;2.62;;;;;;;21.50;60.17;100245.33;1673529;85;21514;-70
2022/07/24 00:04:18;;;;;;;6.05;2.65;;;;;;;21.44;60.41;100235.55;1679466;85;21054;-70
2022/07/24 00:06:44;;;;;;;2.98;2.60;;;;;;;21.38;60.53;100238.73;1691552;83;21073;-70
2022/07/24 00:09:10;;;;;;;1.95;1.85;;;;;;;21.32;60.69;100230.30;1683264;85;21588;-71
2022/07/24 00:11:38;;;;;;;2.90;2.25;;;;;;;21.28;60.76;100229.72;1674359;85;21088;-71
2022/07/24 00:14:06;;;;;;;1.95;1.47;;;;;;;21.24;60.89;100229.97;1694723;84;20999;-72
2022/07/24 00:16:32;;;;;;;1.92;1.70;;;;;;;21.19;60.87;100222.61;1700298;83;21015;-71
2022/07/24 00:20:28;;;;;;;4.28;1.62;;;;;;;21.20;60.62;100220.19;1787824;78;23067;-71
2022/07/24 00:22:54;;;;;;;3.15;1.85;;;;;;;21.19;60.51;100220.73;1755010;80;21021;-70
2022/07/24 00:25:20;;;;;;;1.65;1.40;;;;;;;21.24;60.36;100216.42;1763496;81;21536;-71
2022/07/24 00:27:46;;;;;;;2.12;1.55;;;;;;;21.28;60.37;100216.16;1763768;81;21034;-70
2022/07/24 00:30:13;;;;;;;2.67;1.92;;;;;;;21.29;60.20;100211.84;1763480;81;21034;-69
2022/07/24 00:32:39;;;;;;;1.80;1.70;;;;;;;21.31;60.20;100215.10;1764713;81;20982;-69
2022/07/24 00:35:06;;;;;;;1.87;1.75;;;;;;;21.30;60.15;100212.09;1762974;81;21101;-70
2022/07/24 00:37:33;;;;;;;1.85;1.55;;;;;;;21.30;60.10;100209.94;1764500;81;21010;-69
2022/07/24 00:39:59;;;;;;;1.67;1.57;;;;;;;21.30;60.16;100205.88;1761627;81;21166;-69
2022/07/24 00:42:26;;;;;;;3.55;1.50;;;;;;;21.30;60.16;100204.52;1763699;81;21010;-70
2022/07/24 00:44:52;;;;;;;1.27;1.02;;;;;;;21.30;60.16;100208.58;1746864;80;21013;-70
2022/07/24 00:47:19;;;;;;;1.40;1.32;;;;;;;21.30;60.21;100209.94;1735692;82;21003;-69
2022/07/24 00:49:46;;;;;;;2.80;1.70;;;;;;;21.29;60.22;100210.48;1737048;82;21474;-69
2022/07/24 00:52:13;;;;;;;2.60;1.70;;;;;;;21.30;60.29;100212.09;1724045;82;21017;-69
2022/07/24 00:54:39;;;;;;;4.90;1.65;;;;;;;21.30;60.37;100214.00;1729681;82;20994;-70
2022/07/24 00:57:07;;;;;;;2.08;1.40;;;;;;;21.28;60.50;100222.94;1736059;82;21501;-68
2022/07/24 00:59:33;;;;;;;3.47;1.50;;;;;;;21.27;60.73;100217.26;1736211;82;21021;-69
2022/07/24 01:01:59;;;;;;;3.90;1.77;;;;;;;21.24;60.64;100216.42;1728923;82;21047;-69
2022/07/24 01:04:25;;;;;;;1.42;1.42;;;;;;;21.21;60.66;100210.99;1727587;82;21056;-69
2022/07/24 01:06:52;;;;;;;2.60;1.20;;;;;;;21.18;60.93;100217.73;1728121;82;21018;-69
2022/07/24 01:09:19;;;;;;;1.67;1.25;;;;;;;21.15;61.04;100223.70;1735453;82;21041;-68
2022/07/24 01:11:45;;;;;;;1.47;1.37;;;;;;;21.13;61.13;100227.73;1726833;82;21466;-69
2022/07/24 01:14:12;;;;;;;2.72;1.60;;;;;;;;;;1732056;81;21057;-69
2022/07/24 01:16:39;;;;;;;2.05;1.55;;;;;;;21.06;61.62;100229.32;1734851;82;21006;-69
2022/07/24 01:19:07;;;;;;;2.52;2.33;;;;;;;21.02;61.85;100228.73;1733800;82;21074;-69
2022/07/24 01:21:33;;;;;;;2.77;1.30;;;;;;;20.97;61.90;100233.05;1728255;82;21053;-70
2022/07/24 01:24:00;;;;;;;4.03;1.27;;;;;;;20.93;61.98;100224.36;1727629;82;21549;-69
2022/07/24 01:26:26;;;;;;;3.67;3.33;;;;;;;20.90;61.98;100235.16;1719520;82;21651;-69
2022/07/24 01:28:53;;;;;;;2.80;2.60;;;;;;;20.88;62.01;100233.25;1726938;83;21006;-69
2022/07/24 01:31:19;;;;;;;3.12;1.65;;;;;;;20.88;62.12;100231.08;1721178;82;21088;-69
2022/07/24 01:33:45;;;;;;;3.85;1.55;;;;;;;20.88;61.98;100231.08;1720253;82;21030;-69
2022/07/24 01:36:11;;;;;;;;;;;;;;;20.87;62.29;100228.08;1728834;82;21037;-68
2022/07/24 01:38:39;;;;;;;1.22;1.12;;;;;;;20.87;62.18;100229.44;1725897;83;20135;-68
2022/07/24 01:41:07;;;;;;;2.65;1.95;;;;;;;20.79;62.17;100230.73;1725017;83;21029;-68
2022/07/24 01:43:34;;;;;;;3.02;1.52;;;;;;;20.78;62.18;100224.50;1725030;83;21022;-68
2022/07/24 01:46:00;;;;;;;;;;;;;;;20.78;62.39;100225.05;1722196;81;21006;-68
2022/07/24 01:48:26;;;;;;;1.57;1.37;;;;;;;20.75;62.57;100225.02;1726382;83;20423;-69
2022/07/24 01:50:52;;;;;;;;;;;;;;;20.66;62.86;100225.20;1728831;82;21006;-69
2022/07/24 01:53:19;;;;;;;1.30;1.20;;;;;;;20.60;62.98;100224.89;1721402;83;20150;-69
2022/07/24 01:55:45;;;;;;;3.80;1.50;;;;;;;20.51;63.38;100225.05;1726027;83;20934;-69
2022/07/24 01:58:13;;;;;;;2.35;1.50;;;;;;;20.49;63.90;100231.26;1729312;82;21073;-69
2022/07/24 02:00:39;;;;;;;3.92;2.55;;;;;;;20.47;64.16;100229.34;1697265;82;21015;-69
2022/07/24 02:03:06;;;;;;;2.25;1.65;;;;;;;20.45;64.46;100221.47;1669801;85;21018;-69
2022/07/24 02:05:34;;;;;;;1.50;1.40;;;;;;;20.42;64.71;100226.87;1669577;86;21034;-69
2022/07/24 02:08:01;;;;;;;4.53;1.42;;;;;;;20.40;64.64;100226.31;1661014;85;21101;-69
2022/07/24 02:10:29;;;;;;;1.75;1.65;;;;;;;20.37;64.99;100225.47;1670023;85;21103;-69
2022/07/24 02:12:57;;;;;;;1.27;1.17;;;;;;;20.34;64.95;100221.94;1683333;85;21006;-69
2022/07/24 02:15:25;;;;;;;1.77;1.67;;;;;;;20.33;65.15;100221.64;1692814;84;21108;-70
2022/07/24 02:17:56;;;;;;;1.40;1.40;;;;;;;20.32;65.20;100219.99;1658034;86;21023;-69
2022/07/24 02:20:24;;;;;;;2.17;1.62;;;;;;;20.31;65.28;100216.22;1693453;85;21558;-70
2022/07/24 02:22:50;;;;;;;2.47;1.50;;;;;;;20.32;65.23;100221.89;1706002;82;21073;-69
2022/07/24 02:25:16;;;;;;;4.47;1.30;;;;;;;20.32;65.06;100219.99;1729033;82;21036;-69
2022/07/24 02:27:43;;;;;;;5.60;1.27;;;;;;;20.33;64.78;100220.28;1718483;83;21010;-69
2022/07/24 02:30:17;;;;;;;1.57;1.12;;;;;;;20.37;64.47;100226.81;1730205;82;21018;-68
2022/07/24 02:32:44;;;;;;;2.10;1.77;;;;;;;20.41;64.42;100227.13;1730268;83;21069;-69
2022/07/24 02:35:11;;;;;;;1.90;1.72;;;;;;;20.45;64.15;100235.02;1695450;83;21021;-69
2022/07/24 02:37:40;;;;;;;0.98;0.82;;;;;;;20.48;64.08;100230.99;1696173;84;21530;-69
2022/07/24 02:40:09;;;;;;;1.82;1.20;;;;;;;20.47;63.81;100226.09;1689261;84;20980;-69
2022/07/24 02:42:37;;;;;;;2.20;1.50;;;;;;;20.49;63.53;100227.20;1680713;84;21474;-69
2022/07/24 02:45:06;;;;;;;4.33;1.40;;;;;;;20.51;63.41;100229.95;1657474;84;21074;-69
2022/07/24 02:47:36;;;;;;;3.95;1.30;;;;;;;20.55;63.33;100231.58;1607437;87;21594;-69
2022/07/24 02:50:03;;;;;;;3.33;1.27;;;;;;;20.58;63.38;100228.36;1617857;87;21055;-69
2022/07/24 02:52:30;;;;;;;1.95;1.22;;;;;;;20.63;63.50;100238.47;1653992;85;21038;-70
2022/07/24 02:54:56;;;;;;;1.62;1.52;;;;;;;20.65;63.51;100228.20;1650115;85;21135;-69
2022/07/24 02:57:22;;;;;;;2.05;1.45;;;;;;;20.67;63.70;100226.85;1680602;84;20987;-69
2022/07/24 02:59:51;;;;;;;3.00;1.67;;;;;;;20.76;63.84;100232.08;1674557;84;21019;-68
2022/07/24 03:02:16;;;;;;;1.98;1.67;;;;;;;20.86;63.89;100229.17;1734812;82;21101;-68
2022/07/24 03:04:43;;;;;;;;;;;;;;;21.09;63.73;100230.14;1743772;82;21049;-69
2022/07/24 03:07:09;;;;;;;1.17;0.98;;;;;;;21.54;62.91;100225.28;1740314;82;20112;-69
2022/07/24 03:09:35;;;;;;;3.77;1.27;;;;;;;22.05;61.98;100221.39;1743987;82;21479;-69
2022/07/24 03:12:01;;;;;;;2.98;1.10;;;;;;;22.65;59.92;100220.42;1711173;82;21057;-70
2022/07/24 03:14:28;;;;;;;2.75;1.15;;;;;;;23.24;57.98;100219.02;1705793;84;21042;-67
2022/07/24 03:16:55;;;;;;;2.20;0.70;;;;;;;23.82;56.22;100215.05;1707497;84;21022;-68
2022/07/24 03:19:22;;;;;;;1.80;1.17;;;;;;;24.35;54.58;100203.56;1714919;83;21038;-69
2022/07/24 03:21:48;;;;;;;2.33;1.25;;;;;;;24.84;53.01;100212.98;1705241;84;21085;-69
2022/07/24 03:24:16;;;;;;;0.88;0.80;;;;;;;25.30;51.62;100213.13;1715121;84;21047;-68
2022/07/24 03:26:42;;;;;;;2.47;0.68;;;;;;;25.71;50.18;100211.28;1711293;83;21082;-70
2022/07/24 03:29:09;;;;;;;1.12;0.60;;;;;;;26.12;49.04;100210.73;1714813;84;21076;-69
2022/07/24 03:31:36;;;;;;;1.42;0.50;;;;;;;26.47;48.06;100200.38;1700467;83;21110;-68
2022/07/24 03:34:03;;;;;;;1.12;1.02;;;;;;;26.85;47.15;100204.97;1716641;82;21534;-69
2022/07/24 03:36:29;;;;;;;2.75;0.80;;;;;;;27.21;46.20;100197.47;1733591;82;21081;-70
2022/07/24 03:38:55;;;;;;;2.47;0.72;;;;;;;27.52;45.60;100199.88;1733603;82;21088;-68
2022/07/24 03:41:22;;;;;;;1.15;0.50;;;;;;;27.84;45.13;100199.48;1721669;83;21007;-68
2022/07/24 03:43:50;;;;;;;1.12;0.45;;;;;;;28.14;43.97;100192.53;1717006;83;21074;-69
2022/07/24 03:46:17;;;;;;;1.70;0.53;;;;;;;28.44;42.15;100197.58;1712451;82;21089;-68
2022/07/24 03:48:43;;;;;;;1.50;0.37;;;;;;;28.70;41.39;100196.41;1670761;85;21030;-69
2022/07/24 03:51:10;;;;;;;0.40;0.35;;;;;;;28.97;41.27;100192.70;1668299;84;21036;-70
2022/07/24 03:53:36;;;;;;;0.60;0.37;;;;;;;29.26;39.99;100197.67;1656860;85;21103;-70
2022/07/24 03:56:09;;;;;;;2.02;0.30;;;;;;;29.55;39.46;100197.67;1668516;85;21811;-70
2022/07/24 03:58:36;;;;;;;0.70;0.60;;;;;;;29.80;38.63;100198.08;1638094;86;21014;-69
2022/07/24 04:01:03;;;;;;;1.62;0.30;;;;;;;30.06;38.19;100203.05;1655223;85;21507;-70
2022/07/24 04:03:29;;;;;;;1.27;0.40;;;;;;;30.25;37.87;100206.02;1718744;82;21098;-68
2022/07/24 04:05:56;;;;;;;0.40;0.40;;;;;;;30.37;37.71;100204.84;1714396;82;21054;-71
2022/07/24 04:08:22;;;;;;;0.60;0.37;;;;;;;30.52;37.79;100197.23;1716762;82;20983;-70
2022/07/24 04:10:56;;;;;;;0.98;0.30;;;;;;;30.66;37.46;100193.70;1716535;82;21030;-69
2022/07/24 04:13:19;;;;;;;0.40;0.33;;;;;;;30.79;36.99;100187.19;1715651;82;21023;-70
2022/07/24 04:15:46;;;;;;;4.12;0.70;;;;;;;30.97;36.98;100181.11;1699197;82;21637;-69
2022/07/24 04:18:13;;;;;;;0.55;0.30;;;;;;;31.16;36.81;100184.03;1710629;82;20987;-70
2022/07/24 04:20:39;;;;;;;0.98;0.60;;;;;;;31.27;36.80;100183.06;1713793;82;21546;-71
2022/07/24 04:23:05;;;;;;;2.60;0.40;;;;;;;31.41;36.50;100187.20;1691214;83;21080;-70
2022/07/24 04:25:34;;;;;;;1.32;0.50;;;;;;;31.68;36.42;100184.33;1666035;83;21040;-72
2022/07/24 04:28:01;;;;;;;2.15;0.30;;;;;;;31.95;35.14;100187.94;1674155;84;21561;-71
2022/07/24 04:30:27;;;;;;;1.57;0.50;;;;;;;32.14;34.49;100186.69;1673472;83;21513;-69
2022/07/24 04:32:54;;;;;;;2.87;0.68;;;;;;;32.26;34.01;100182.59;1673654;84;21073;-70
2022/07/24 04:35:20;;;;;;;1.10;0.60;;;;;;;32.34;34.46;100183.10;1686477;84;21025;-70
2022/07/24 04:37:47;;;;;;;0.50;0.42;;;;;;;32.45;33.41;100182.08;1674381;85;21560;-70
2022/07/24 04:40:14;;;;;;;1.40;0.30;;;;;;;32.55;33.06;100178.08;1687361;85;21014;-70
2022/07/24 04:42:42;;;;;;;10.93;0.57;;;;;;;32.61;33.07;100174.02;1679614;85;21053;-71
2022/07/24 04:45:10;;;;;;;1.77;0.35;;;;;;;32.69;33.50;100168.16;1687853;83;21010;-70
2022/07/24 04:47:38;;;;;;;0.50;0.20;;;;;;;32.80;33.50;100163.02;1688275;85;21050;-69
2022/07/24 04:50:07;;;;;;;0.60;0.28;;;;;;;32.79;32.75;100160.81;1679199;85;21058;-72
2022/07/24 04:52:33;;;;;;;2.60;0.40;;;;;;;32.64;32.93;100155.37;1695163;83;21485;-73
2022/07/24 04:54:59;;;;;;;1.65;0.20;;;;;;;32.48;33.77;100152.45;1688093;83;20966;-71
2022/07/24 04:57:25;;;;;;;0.50;0.30;;;;;;;32.52;33.84;100153.38;1687303;81;21092;-70
2022/07/24 04:59:53;;;;;;;3.55;0.30;;;;;;;32.62;33.10;100158.26;1684066;83;21109;-70
2022/07/24 05:02:19;;;;;;;1.72;0.53;;;;;;;32.73;32.54;100150.56;1675775;85;21098;-69
2022/07/24 05:04:45;;;;;;;2.20;0.30;;;;;;;32.58;32.40;100153.41;1674918;85;21095;-70
2022/07/24 05:07:11;;;;;;;0.72;0.30;;;;;;;32.33;32.73;100145.63;1668937;85;21158;-70
2022/07/24 05:09:38;;;;;;;0.35;0.20;;;;;;;32.10;33.38;100153.47;1657939;85;21070;-71
2022/07/24 05:12:05;;;;;;;2.80;0.33;;;;;;;32.04;33.71;100149.88;1691731;82;21015;-70
2022/07/24 05:14:32;;;;;;;2.37;0.40;;;;;;;32.00;33.81;100140.89;1714886;82;21062;-71
2022/07/24 05:16:59;;;;;;;1.35;0.35;;;;;;;32.00;34.02;100140.89;1697996;83;21014;-71
2022/07/24 05:19:25;;;;;;;0.47;0.35;;;;;;;31.95;34.10;100141.66;1715998;82;21058;-71
2022/07/24 05:21:52;;;;;;;1.52;0.40;;;;;;;31.80;34.32;100138.95;1708305;83;21510;-72
2022/07/24 05:24:19;;;;;;;1.70;0.30;;;;;;;31.68;34.46;100138.87;1704111;82;21467;-73
2022/07/24 05:26:45;;;;;;;0.78;0.20;;;;;;;31.58;34.41;100135.94;1707688;82;21116;-71
2022/07/24 05:29:11;;;;;;;0.33;0.20;;;;;;;31.44;34.90;100138.36;1716194;82;21565;-69
2022/07/24 05:31:38;;;;;;;2.52;0.65;;;;;;;31.32;35.42;100131.95;1714578;82;21023;-70
2022/07/24 05:34:04;;;;;;;0.85;0.30;;;;;;;31.29;35.02;100138.11;1711085;82;21504;-71
2022/07/24 05:36:30;;;;;;;1.60;0.30;;;;;;;31.16;35.57;100136.66;1726530;82;21288;-70
2022/07/24 05:38:56;;;;;;;1.05;0.30;;;;;;;30.96;36.12;100130.52;1731433;82;21061;-71
2022/07/24 05:41:23;;;;;;;1.60;0.20;;;;;;;30.94;36.30;100126.72;1720922;82;21097;-71
2022/07/24 05:43:49;;;;;;;0.57;0.30;;;;;;;30.90;35.85;100127.70;1719865;83;21477;-70
2022/07/24 05:46:15;;;;;;;6.70;0.35;;;;;;;30.84;36.34;100129.24;1713980;82;21025;-71
2022/07/24 05:48:41;;;;;;;2.55;0.50;;;;;;;30.89;36.47;100126.86;1717356;82;21707;-71
2022/07/24 05:51:08;;;;;;;0.82;0.30;;;;;;;30.95;36.12;100129.72;1723309;82;21577;-70
2022/07/24 05:53:36;;;;;;;1.95;0.23;;;;;;;30.89;36.58;100128.23;1713076;82;21085;-70
2022/07/24 05:56:03;;;;;;;1.45;0.20;;;;;;;31.03;36.36;100121.19;1728782;81;21942;-70
2022/07/24 05:58:29;;;;;;;2.95;0.35;;;;;;;30.97;35.81;100128.82;1721003;82;21486;-69
2022/07/24 06:00:55;;;;;;;2.42;0.72;;;;;;;30.77;36.64;100129.52;1708942;82;20996;-71
2022/07/24 06:03:21;;;;;;;0.40;0.28;;;;;;;30.81;36.88;100134.02;1693198;83;21070;-71
2022/07/24 06:05:48;;;;;;;2.40;0.72;;;;;;;30.92;36.50;100131.75;1694193;83;21556;-70
2022/07/24 06:08:14;;;;;;;1.77;0.60;;;;;;;30.89;36.92;100130.20;1692038;83;21057;-72
2022/07/24 06:10:43;;;;;;;1.80;0.40;;;;;;;30.90;36.95;100131.27;1692994;83;21179;-74
2022/07/24 06:13:09;;;;;;;1.75;0.47;;;;;;;30.93;36.87;100125.67;1691073;83;21117;-72
2022/07/24 06:15:38;;;;;;;1.02;0.60;;;;;;;30.93;37.35;100123.74;1691833;83;21014;-73
2022/07/24 06:18:05;;;;;;;1.77;0.70;;;;;;;30.97;37.18;100132.95;1693348;83;21061;-72
2022/07/24 06:20:33;;;;;;;1.17;0.78;;;;;;;31.11;37.51;100132.71;1692004;83;21079;-71
2022/07/24 06:22:59;;;;;;;3.00;1.20;;;;;;;31.22;36.68;100130.39;1690055;82;21080;-71
2022/07/24 06:25:25;;;;;;;4.35;1.05;;;;;;;31.33;37.22;100128.07;1684612;84;21503;-71
2022/07/24 06:27:53;;;;;;;4.53;0.70;;;;;;;31.52;36.40;100126.27;1676718;84;21018;-72
2022/07/24 06:30:23;;;;;;;1.17;0.90;;;;;;;31.79;36.26;100138.70;1684945;84;21023;-70
2022/07/24 06:32:51;;;;;;;1.72;0.37;;;;;;;31.94;36.01;100132.57;1675614;84;21054;-72
2022/07/24 06:35:18;;;;;;;0.80;0.78;;;;;;;31.98;35.76;100133.50;1693481;83;20994;-73
2022/07/24 06:37:46;;;;;;;1.17;0.70;;;;;;;31.94;35.57;100131.19;1685800;83;21048;-70
2022/07/24 06:40:15;;;;;;;0.53;0.53;;;;;;;31.98;35.73;100125.81;1689396;83;21021;-72
2022/07/24 06:42:42;;;;;;;1.52;1.00;;;;;;;32.14;35.42;100127.42;1695568;83;21161;-71
2022/07/24 06:45:10;;;;;;;2.85;0.90;;;;;;;32.18;35.70;100126.38;1682296;83;21022;-72
2022/07/24 06:47:37;;;;;;;2.47;0.80;;;;;;;32.27;35.08;100129.62;1696841;83;21027;-72
2022/07/24 06:50:05;;;;;;;0.88;0.70;;;;;;;32.30;35.05;100124.23;1708559;83;21662;-71
2022/07/24 06:52:31;;;;;;;3.27;0.60;;;;;;;32.44;35.10;100121.73;1691213;83;21124;-73
2022/07/24 06:54:57;;;;;;;3.45;1.00;;;;;;;32.56;34.36;100117.05;1687417;83;22283;-73
2022/07/24 06:57:25;;;;;;;1.75;0.80;;;;;;;32.53;34.77;100122.45;1693292;83;21058;-72
2022/07/24 06:59:54;;;;;;;3.60;0.80;;;;;;;32.60;33.75;100108.93;1688267;83;21139;-73
2022/07/24 07:02:22;;;;;;;1.82;0.70;;;;;;;32.69;33.07;100119.30;1720778;83;21139;-73
2022/07/24 07:04:48;;;;;;;1.75;0.35;;;;;;;32.76;32.63;100109.08;1721925;83;20982;-73
2022/07/24 07:07:17;;;;;;;3.02;0.60;;;;;;;32.76;32.32;100101.59;1722735;83;21071;-71
2022/07/24 07:09:45;;;;;;;1.20;0.25;;;;;;;32.68;32.75;100102.52;1722323;83;21129;-72
2022/07/24 07:12:11;;;;;;;1.60;0.40;;;;;;;32.76;31.88;100098.84;1718870;80;21057;-72
2022/07/24 07:14:37;;;;;;;0.80;0.20;;;;;;;32.75;31.51;100092.28;1714528;83;21539;-72
2022/07/24 07:17:04;;;;;;;2.80;1.82;;;;;;;32.67;31.85;100085.72;1716514;83;21593;-74
2022/07/24 07:19:30;;;;;;;5.60;0.85;;;;;;;32.65;31.97;100083.88;1716588;83;21058;-72
2022/07/24 07:21:58;;;;;;;1.70;0.88;;;;;;;32.63;32.05;100079.29;1713412;83;21066;-72
2022/07/24 07:24:26;;;;;;;0.90;0.10;;;;;;;32.76;31.25;100075.38;1737358;82;21389;-74
2022/07/24 07:26:52;;;;;;;0.65;0.45;;;;;;;32.86;30.31;100073.31;1742011;82;21486;-73
2022/07/24 07:29:18;;;;;;;6.37;4.33;;;;;;;32.76;30.78;100073.20;1743777;82;21007;-72
2022/07/24 07:31:44;;;;;;;2.12;0.30;;;;;;;32.65;31.39;100071.47;1735888;82;21047;-72
2022/07/24 07:34:10;;;;;;;0.80;0.53;;;;;;;32.60;30.92;100071.69;1721870;80;21592;-72
2022/07/24 07:36:38;;;;;;;1.98;0.50;;;;;;;32.47;30.55;100071.41;1713827;83;21030;-72
2022/07/24 07:39:04;;;;;;;0.42;0.30;;;;;;;32.35;30.58;100070.83;1712738;84;21065;-71
2022/07/24 07:41:30;;;;;;;0.53;0.23;;;;;;;32.13;31.28;100073.41;1713879;83;21053;-73
2022/07/24 07:43:58;;;;;;;0.35;0.10;;;;;;;31.85;31.67;100072.58;1712588;84;21635;-74
2022/07/24 07:46:25;;;;;;;0.68;0.40;;;;;;;31.43;32.21;100069.83;1732994;82;20975;-75
2022/07/24 07:48:52;;;;;;;1.50;0.13;;;;;;;31.10;33.15;100071.93;1743662;82;21070;-74
2022/07/24 07:51:18;;;;;;;2.05;1.95;;;;;;;31.00;33.21;100065.42;1745371;82;21030;-75
2022/07/24 07:53:44;;;;;;;1.80;0.20;;;;;;;31.01;33.16;100068.42;1744872;82;21168;-73
2022/07/24 07:56:12;;;;;;;1.90;0.13;;;;;;;30.94;33.05;100068.13;1733060;82;21060;-72
2022/07/24 07:58:38;;;;;;;2.02;0.62;;;;;;;30.82;33.56;100065.48;1718051;83;21062;-72
2022/07/24 08:01:04;;;;;;;0.75;0.40;;;;;;;30.64;34.00;100065.33;1722069;83;21026;-75
2022/07/24 08:03:30;;;;;;;3.87;0.55;;;;;;;30.44;34.71;100064.09;1721563;82;21330;-73
2022/07/24 08:05:57;;;;;;;1.17;0.20;;;;;;;30.35;34.41;100062.77;1722550;83;21561;-74
2022/07/24 08:08:25;;;;;;;0.20;0.20;;;;;;;30.29;34.59;100059.94;1689035;85;21047;-72
2022/07/24 08:10:51;;;;;;;0.45;0.40;;;;;;;30.27;34.07;100058.88;1726500;82;22171;-73
2022/07/24 08:13:19;;;;;;;0.68;0.13;;;;;;;30.17;34.35;100052.92;1719711;83;21041;-73
2022/07/24 08:15:46;;;;;;;1.05;0.30;;;;;;;30.07;33.82;100053.50;1721742;83;21093;-72
2022/07/24 08:18:13;;;;;;;0.57;0.20;;;;;;;30.03;34.09;100055.30;1727219;82;21123;-72
2022/07/24 08:20:39;;;;;;;0.95;0.20;;;;;;;29.96;33.90;100050.85;1721601;83;21073;-73
2022/07/24 08:23:05;;;;;;;2.60;1.52;;;;;;;29.94;34.32;100046.83;1710759;82;20997;-74
2022/07/24 08:25:34;;;;;;;0.68;0.68;;;;;;;29.98;34.06;100043.66;1697690;84;21069;-72
2022/07/24 08:28:01;;;;;;;3.35;0.40;;;;;;;30.06;34.25;100045.03;1697762;84;21159;-72
2022/07/24 08:30:27;;;;;;;2.15;0.20;;;;;;;30.03;33.08;100034.69;1697875;84;21098;-74
2022/07/24 08:32:53;;;;;;;0.40;0.20;;;;;;;29.82;33.83;100044.17;1697827;84;21541;-74
2022/07/24 08:35:23;;;;;;;1.62;0.20;;;;;;;29.62;34.46;100040.11;1664237;86;21058;-72
2022/07/24 08:37:50;;;;;;;0.88;0.23;;;;;;;29.55;34.54;100038.41;1698195;84;21565;-74
2022/07/24 08:40:16;;;;;;;0.50;0.50;;;;;;;29.46;34.32;100045.30;1699832;84;21125;-71
2022/07/24 08:42:43;;;;;;;2.60;0.30;;;;;;;29.39;34.40;100038.09;1701560;84;21113;-73
2022/07/24 08:45:10;;;;;;;1.72;0.70;;;;;;;29.39;34.70;100040.05;1708928;83;21033;-70
2022/07/24 08:47:41;;;;;;;0.82;0.40;;;;;;;29.41;34.98;100049.56;1716036;83;20971;-73
2022/07/24 08:50:09;;;;;;;1.22;0.20;;;;;;;29.48;34.96;100046.35;1715883;83;21057;-77
2022/07/24 08:52:38;;;;;;;1.42;0.10;;;;;;;29.46;33.90;100043.92;1715315;83;21074;-71
2022/07/24 08:55:06;;;;;;;0.98;0.20;;;;;;;29.41;33.49;100041.90;1715628;83;21482;-72
2022/07/24 08:57:32;;;;;;;1.42;0.30;;;;;;;29.37;33.81;100036.81;1705875;83;22245;-73
2022/07/24 08:59:59;;;;;;;0.10;0.10;;;;;;;29.37;34.17;100028.58;1715656;83;21109;-71
2022/07/24 09:02:27;;;;;;;0.50;0.20;;;;;;;29.42;34.29;100029.77;1708011;83;21013;-70
2022/07/24 09:04:59;;;;;;;0.80;0.40;;;;;;;29.55;34.45;100024.68;1710512;83;21121;-72
2022/07/24 09:07:29;;;;;;;1.42;0.20;;;;;;;29.71;34.34;100025.02;1711049;83;21086;-72
2022/07/24 09:10:13;;;;;;;0.98;0.20;;;;;;;29.81;33.48;100025.27;1709340;83;20990;-72
2022/07/24 09:12:45;;;;;;;1.87;0.23;;;;;;;29.85;33.28;100020.16;1710566;83;20963;-71
2022/07/24 09:15:23;;;;;;;1.17;0.17;;;;;;;29.83;33.00;100028.49;1706970;84;21029;-72
2022/07/24 09:17:54;;;;;;;2.95;0.20;;;;;;;29.69;33.14;100018.47;1703782;84;21545;-73
2022/07/24 09:20:22;;;;;;;0.98;0.20;;;;;;;29.57;33.31;100015.55;1710268;84;21045;-72
2022/07/24 09:22:49;;;;;;;0.88;0.40;;;;;;;29.50;33.87;100020.75;1710237;83;21113;-71
2022/07/24 09:25:25;;;;;;;2.37;0.28;;;;;;;29.51;34.06;100018.23;1708819;83;21049;-71
2022/07/24 09:27:56;;;;;;;2.83;0.20;;;;;;;29.60;33.86;100020.41;1707700;83;21092;-74
2022/07/24 09:30:39;;;;;;;0.42;0.20;;;;;;;29.56;33.80;100020.02;1710627;82;22277;-71
2022/07/24 09:33:15;;;;;;;0.82;0.20;;;;;;;29.56;34.06;100015.33;1709047;83;21057;-71
2022/07/24 09:35:51;;;;;;;2.27;0.33;;;;;;;29.66;33.88;100016.36;1722333;82;21064;-71
2022/07/24 09:38:23;;;;;;;1.77;0.57;;;;;;;29.81;33.98;100009.59;1721519;82;21025;-72
2022/07/24 09:40:53;;;;;;;1.37;0.35;;;;;;;29.98;33.86;100011.49;1723474;82;21050;-72
2022/07/24 09:43:28;;;;;;;0.68;0.30;;;;;;;30.17;33.64;100014.44;1722649;82;21072;-75
2022/07/24 09:46:08;;;;;;;1.30;0.35;;;;;;;30.29;33.27;100011.83;1720596;82;21125;-73
2022/07/24 09:48:53;;;;;;;4.40;0.82;;;;;;;30.37;33.36;100023.95;1723771;82;21512;-72
2022/07/24 09:51:21;;;;;;;0.93;0.42;;;;;;;30.42;33.26;100023.20;1733986;82;21030;-72
2022/07/24 09:53:56;;;;;;;1.90;1.80;;;;;;;30.46;32.94;100019.23;1724400;82;21030;-75
2022/07/24 09:56:24;;;;;;;2.15;1.25;;;;;;;30.47;32.83;100012.58;1720332;82;21095;-72
2022/07/24 09:58:56;;;;;;;2.33;0.65;;;;;;;30.50;32.84;100011.93;1713932;82;21641;-74
2022/07/24 10:01:27;;;;;;;2.70;0.37;;;;;;;30.53;32.85;100013.20;1720464;82;21010;-72
2022/07/24 10:03:58;;;;;;;1.25;0.30;;;;;;;30.47;32.99;100013.37;1722464;83;21060;-71
2022/07/24 10:06:26;;;;;;;3.60;0.82;;;;;;;30.44;33.10;100011.85;1721977;82;21046;-71
2022/07/24 10:08:55;;;;;;;1.92;0.33;;;;;;;30.36;32.75;100016.25;1722317;83;21092;-71
2022/07/24 10:11:21;;;;;;;3.58;1.40;;;;;;;30.21;32.98;100012.64;1720985;81;21065;-73
2022/07/24 10:13:49;;;;;;;4.33;0.55;;;;;;;30.17;33.52;100011.69;1703270;83;20964;-72
2022/07/24 10:16:29;;;;;;;2.65;1.02;;;;;;;30.15;33.34;100017.51;1721711;83;20993;-73
2022/07/24 10:19:01;;;;;;;3.40;0.70;;;;;;;30.17;33.64;100013.06;1712382;83;21016;-73
2022/07/24 10:21:32;;;;;;;4.80;0.20;;;;;;;30.15;33.90;100014.77;1703618;82;21557;-75
2022/07/24 10:24:12;;;;;;;6.85;0.20;;;;;;;30.12;33.89;100015.44;1722299;82;21093;-74
2022/07/24 10:26:50;;;;;;;0.72;0.30;;;;;;;30.11;34.00;100012.44;1720616;82;21338;-74
2022/07/24 10:29:23;;;;;;;2.37;0.30;;;;;;;30.11;34.15;100015.19;1718481;83;21063;-73
2022/07/24 10:31:58;;;;;;;0.72;0.30;;;;;;;30.09;33.80;100012.75;1720791;83;21009;-73
2022/07/24 10:34:42;;;;;;;1.35;0.37;;;;;;;30.03;34.21;100002.28;1721955;83;21045;-72
2022/07/24 10:37:20;;;;;;;11.00;0.40;;;;;;;29.98;34.59;100003.83;1722134;82;21109;-73
2022/07/24 10:40:18;;;;;;;3.00;0.30;;;;;;;29.92;34.24;100003.19;1721689;82;21049;-75
2022/07/24 10:43:09;;;;;;;1.02;0.33;;;;;;;29.86;34.66;99999.01;1722299;82;21568;-75
2022/07/24 10:45:58;;;;;;;1.25;0.68;;;;;;;29.76;34.74;99998.79;1695593;83;21013;-74
2022/07/24 10:48:32;;;;;;;1.52;0.50;;;;;;;29.73;35.01;99991.19;1693712;83;21061;-74
2022/07/24 10:51:06;;;;;;;1.12;0.85;;;;;;;29.63;34.80;99990.11;1690553;83;21113;-72
2022/07/24 10:53:44;;;;;;;1.85;0.33;;;;;;;29.56;35.06;100000.80;1694344;83;21038;-73
2022/07/24 10:56:24;;;;;;;1.12;0.55;;;;;;;29.53;35.13;99998.69;1693856;83;21238;-70
2022/07/24 10:59:03;;;;;;;1.87;0.88;;;;;;;29.51;34.82;99992.94;1692695;83;21033;-72
2022/07/24 11:01:45;;;;;;;2.80;0.53;;;;;;;29.47;35.23;99991.19;1710368;83;20989;-75
2022/07/24 11:04:23;;;;;;;3.22;1.20;;;;;;;29.50;35.71;99983.68;1722426;83;21019;-74
2022/07/24 11:06:56;;;;;;;3.40;0.80;;;;;;;29.52;35.39;99991.02;1705638;83;21112;-77
2022/07/24 11:09:26;;;;;;;0.75;0.50;;;;;;;29.54;35.54;99985.22;1716441;83;21035;-74
2022/07/24 11:11:59;;;;;;;4.10;0.40;;;;;;;29.55;35.31;99983.49;1721561;80;20997;-75
2022/07/24 11:14:44;;;;;;;0.80;0.60;;;;;;;29.54;34.89;99975.03;1715097;83;21081;-73
2022/07/24 11:17:43;;;;;;;2.40;0.60;;;;;;;29.47;35.08;99975.51;1687289;85;21534;-75
2022/07/24 11:20:13;;;;;;;2.52;0.37;;;;;;;29.49;34.84;99973.81;1688013;85;21097;-73
2022/07/24 11:22:53;;;;;;;0.95;0.20;;;;;;;29.47;34.47;99976.08;1672744;85;21058;-74
2022/07/24 11:25:26;;;;;;;1.95;0.35;;;;;;;29.44;34.36;99980.30;1636133;87;21019;-74
2022/07/24 11:27:57;;;;;;;4.95;0.53;;;;;;;29.44;34.22;99973.97;1681484;83;21141;-75
2022/07/24 11:30:27;;;;;;;1.10;0.40;;;;;;;29.39;34.27;99974.16;1689346;84;21077;-76
2022/07/24 11:32:55;;;;;;;1.57;0.20;;;;;;;29.35;34.26;99976.74;1683142;84;21537;-74
2022/07/24 11:35:31;;;;;;;3.58;0.75;;;;;;;29.37;34.00;99973.11;1650222;84;21036;-74